1. Żart spotkania. Po czym poznać, że nie jesteś już prezesem? Kiedy wsidasz do auta, otwierasz gazetę, a auto nie jedzie 😁. Pzdr z drogi!

  2. 230950Z AUTO 25016KT 220V290 9999 BKN032 20/11 Q1017 NOSIG

  3. 230950Z AUTO 25013KT 230V300 9999 BKN026 19/12 Q1016

  4. LFBZ 230930Z AUTO VRB02KT 7000 BKN012 BKN017 OVC023 20/18 Q1024 BECMG BKN020

  5. KOSH 230953Z AUTO 25004KT 10SM CLR 18/17 A2968 RMK AO2 RAB04E15 SLP041 P0000 T01780172

  6. YPEA 230930Z AUTO 10006KT 9999 // BKN078 OVC092 17/12 Q1020

  7. YPCC 230930Z AUTO 11021G33KT 3200 SHRA SCT014 BKN030 OVC072 25/23 Q1010

  8. NZWN 230930Z AUTO 19018KT 4000 -RA BR OVC007/// 10/10 Q1000 NOSIG